Time;durP1;ratioP1;P1;durP2;ratioP2;P2;SDS_P1;SDS_P2;PMS_P1;PMS_P2;Temp;Humidity;BMP_temperature;BMP_pressure;BME280_temperature;BME280_humidity;BME280_pressure;Samples;Min_cycle;Max_cycle;Signal;HPM_P1;HPM_P2
2022/09/25 00:01:34;;;;;;;44.63;26.08;;;;;;;;;;5052228;28;20031;-68
2022/09/25 00:04:01;;;;;;;46.38;26.00;;;;;;;;;;5051752;28;20032;-68
2022/09/25 00:06:28;;;;;;;38.97;24.00;;;;;;;;;;5040095;28;20029;-68
2022/09/25 00:08:54;;;;;;;34.50;21.25;;;;;;;;;;5039405;28;20458;-68
2022/09/25 00:11:20;;;;;;;30.48;19.55;;;;;;;;;;5039731;28;20022;-68
2022/09/25 00:13:46;;;;;;;68.57;35.08;;;;;;;;;;5038958;28;20467;-68
2022/09/25 00:21:33;;;;;;;99.22;45.60;;;;;;;;;;5016702;28;20036;-70
2022/09/25 00:24:00;;;;;;;105.30;47.38;;;;;;;;;;5020718;28;20335;-68
2022/09/25 00:26:27;;;;;;;71.28;38.30;;;;;;;;;;5019689;28;20068;-69
2022/09/25 00:28:53;;;;;;;78.90;38.42;;;;;;;;;;5019680;28;20026;-68
2022/09/25 00:31:24;;;;;;;78.82;39.45;;;;;;;;;;5018913;28;20032;-70
2022/09/25 00:33:55;;;;;;;73.50;36.92;;;;;;;;;;5019565;28;20049;-70
2022/09/25 00:36:21;;;;;;;67.65;34.47;;;;;;;;;;5020806;28;20029;-68
2022/09/25 00:38:47;;;;;;;61.40;33.70;;;;;;;;;;5015487;28;20081;-68
2022/09/25 00:41:17;;;;;;;60.20;32.75;;;;;;;;;;5011158;28;20032;-70
2022/09/25 00:43:49;;;;;;;43.83;27.00;;;;;;;;;;5011452;28;20026;-68
2022/09/25 00:46:27;;;;;;;40.47;26.63;;;;;;;;;;5011013;28;20045;-68
2022/09/25 00:49:08;;;;;;;49.47;27.90;;;;;;;;;;5010774;28;20059;-69
2022/09/25 00:51:51;;;;;;;44.08;27.00;;;;;;;;;;5010903;28;20021;-68
2022/09/25 00:54:24;;;;;;;50.38;28.50;;;;;;;;;;5010815;28;20053;-69
2022/09/25 00:56:51;;;;;;;48.15;28.67;;;;;;;;;;5010908;28;20018;-68
2022/09/25 00:59:21;;;;;;;46.78;29.92;;;;;;;;;;5010800;28;20034;-68
2022/09/25 01:01:47;;;;;;;38.97;26.80;;;;;;;;;;5010567;28;20482;-68
2022/09/25 01:04:13;;;;;;;42.78;27.67;;;;;;;;;;5010718;28;20042;-69
2022/09/25 01:06:39;;;;;;;42.03;25.77;;;;;;;;;;5013085;28;20478;-68
2022/09/25 01:09:05;;;;;;;34.80;23.38;;;;;;;;;;5014400;28;20036;-68
2022/09/25 01:11:31;;;;;;;35.70;24.02;;;;;;;;;;5014496;28;20022;-68
2022/09/25 01:14:01;;;;;;;36.28;23.15;;;;;;;;;;5014032;28;20478;-69
2022/09/25 01:16:58;;;;;;;36.42;21.63;;;;;;;;;;5013783;28;20026;-70
2022/09/25 01:19:49;;;;;;;32.38;20.52;;;;;;;;;;5008347;28;20118;-69
2022/09/25 01:22:27;;;;;;;30.05;20.42;;;;;;;;;;4994004;28;20030;-70
2022/09/25 01:25:21;;;;;;;30.17;20.40;;;;;;;;;;4994019;28;20045;-69
2022/09/25 01:28:02;;;;;;;28.98;19.95;;;;;;;;;;4953082;29;20035;-68
2022/09/25 01:30:32;;;;;;;34.40;23.00;;;;;;;;;;4953407;29;20035;-68
2022/09/25 01:33:06;;;;;;;31.50;21.60;;;;;;;;;;4953129;29;20159;-68
2022/09/25 01:35:48;;;;;;;32.50;22.25;;;;;;;;;;4953373;28;20045;-69
2022/09/25 01:38:33;;;;;;;34.72;22.27;;;;;;;;;;4952863;29;20122;-68
2022/09/25 01:41:21;;;;;;;29.55;19.90;;;;;;;;;;4952613;29;20035;-68
2022/09/25 01:43:49;;;;;;;29.83;21.00;;;;;;;;;;4947354;28;20043;-70
2022/09/25 01:46:18;;;;;;;26.02;18.17;;;;;;;;;;4952309;29;20125;-68
2022/09/25 01:48:52;;;;;;;28.10;19.65;;;;;;;;;;4952167;29;20127;-69
2022/09/25 01:51:25;;;;;;;24.95;18.05;;;;;;;;;;4952513;29;20051;-68
2022/09/25 01:53:54;;;;;;;22.67;16.58;;;;;;;;;;4959893;28;20031;-68
2022/09/25 01:56:41;;;;;;;25.73;16.77;;;;;;;;;;4971494;28;20042;-68
2022/09/25 01:59:14;;;;;;;41.00;25.23;;;;;;;;;;4971462;28;20094;-68
2022/09/25 02:01:42;;;;;;;35.83;23.77;;;;;;;;;;4971249;28;20027;-69
2022/09/25 02:04:23;;;;;;;39.85;24.90;;;;;;;;;;4977863;28;20391;-68
2022/09/25 02:06:50;;;;;;;39.53;23.48;;;;;;;;;;4993320;28;20025;-68
2022/09/25 02:09:38;;;;;;;40.35;25.83;;;;;;;;;;4993121;28;20046;-68
2022/09/25 02:12:33;;;;;;;42.88;26.05;;;;;;;;;;4993441;28;20033;-68
2022/09/25 02:15:10;;;;;;;39.13;24.27;;;;;;;;;;4993543;28;20137;-71
2022/09/25 02:21:04;;;;;;;28.77;19.70;;;;;;;;;;4993456;28;20125;-68
2022/09/25 02:23:59;;;;;;;23.63;16.40;;;;;;;;;;4993764;28;20026;-68
2022/09/25 02:26:28;;;;;;;24.27;16.80;;;;;;;;;;4971561;28;20122;-68
2022/09/25 02:28:55;;;;;;;24.73;17.85;;;;;;;;;;4971388;28;20049;-68
2022/09/25 02:31:58;;;;;;;22.98;17.25;;;;;;;;;;4971652;28;20097;-70
2022/09/25 02:34:24;;;;;;;29.30;19.30;;;;;;;;;;4970845;28;20035;-68
2022/09/25 02:36:50;;;;;;;26.50;18.35;;;;;;;;;;4970952;28;20138;-68
2022/09/25 02:39:19;;;;;;;31.13;21.30;;;;;;;;;;4970936;28;20039;-68
2022/09/25 02:42:06;;;;;;;32.20;22.30;;;;;;;;;;4970789;28;20524;-68
2022/09/25 02:45:09;;;;;;;30.08;21.67;;;;;;;;;;4971171;28;20043;-68
2022/09/25 02:47:57;;;;;;;30.33;20.17;;;;;;;;;;4971305;28;20042;-68
2022/09/25 02:50:44;;;;;;;29.55;19.65;;;;;;;;;;4971235;28;20034;-68
2022/09/25 02:53:34;;;;;;;26.73;18.20;;;;;;;;;;4971266;28;20037;-68
2022/09/25 02:56:05;;;;;;;28.90;18.23;;;;;;;;;;4971155;28;20038;-68
2022/09/25 02:58:39;;;;;;;21.80;16.42;;;;;;;;;;4970896;28;20027;-67
2022/09/25 03:01:07;;;;;;;25.58;17.05;;;;;;;;;;4971031;28;20524;-67
2022/09/25 03:03:35;;;;;;;23.65;17.90;;;;;;;;;;4982557;28;20193;-68
2022/09/25 03:06:02;;;;;;;24.20;17.40;;;;;;;;;;4990928;28;20027;-68
2022/09/25 03:08:38;;;;;;;23.55;17.85;;;;;;;;;;4992219;28;20034;-68
2022/09/25 03:11:06;;;;;;;23.48;16.73;;;;;;;;;;4992105;28;20026;-68
2022/09/25 03:13:32;;;;;;;22.65;15.88;;;;;;;;;;4992239;28;20026;-67
2022/09/25 03:16:01;;;;;;;22.17;16.08;;;;;;;;;;4992771;28;20058;-67
2022/09/25 03:18:29;;;;;;;23.80;16.83;;;;;;;;;;4992173;28;20115;-68
2022/09/25 03:20:54;;;;;;;22.80;16.52;;;;;;;;;;4992296;28;20109;-68
2022/09/25 03:23:19;;;;;;;25.92;17.65;;;;;;;;;;4992583;28;20113;-68
2022/09/25 03:25:46;;;;;;;39.95;22.23;;;;;;;;;;4992431;28;20029;-68
2022/09/25 03:28:13;;;;;;;60.95;21.67;;;;;;;;;;4991905;28;20484;-68
2022/09/25 03:30:39;;;;;;;49.75;22.52;;;;;;;;;;4992285;28;20029;-68
2022/09/25 03:33:10;;;;;;;57.30;22.50;;;;;;;;;;4992089;28;20030;-69
2022/09/25 03:35:36;;;;;;;;;;;;;;;;;;4992198;28;20606;-68
2022/09/25 03:38:01;;;;;;;54.70;21.40;;;;;;;;;;4991637;28;20004;-67
2022/09/25 03:40:27;;;;;;;38.38;18.80;;;;;;;;;;4991690;28;20018;-68
2022/09/25 03:42:52;;;;;;;35.90;17.85;;;;;;;;;;4991558;28;20386;-68
2022/09/25 03:45:18;;;;;;;37.38;18.10;;;;;;;;;;4992218;28;20030;-69
2022/09/25 03:47:44;;;;;;;22.20;13.40;;;;;;;;;;4991906;28;20022;-68
2022/09/25 03:50:09;;;;;;;27.10;14.88;;;;;;;;;;4992143;28;20042;-68
2022/09/25 03:52:35;;;;;;;28.63;15.85;;;;;;;;;;4991949;28;20034;-68
2022/09/25 03:55:02;;;;;;;25.55;16.98;;;;;;;;;;4990645;28;20643;-68
2022/09/25 03:57:27;;;;;;;28.17;15.73;;;;;;;;;;4991687;28;20031;-68
2022/09/25 03:59:53;;;;;;;26.30;15.75;;;;;;;;;;4991735;28;20041;-68
2022/09/25 04:02:18;;;;;;;28.55;15.60;;;;;;;;;;4991540;28;20360;-67
2022/09/25 04:04:44;;;;;;;25.90;14.65;;;;;;;;;;4991175;28;20094;-67
2022/09/25 04:07:11;;;;;;;24.05;15.52;;;;;;;;;;4991116;28;20031;-68
2022/09/25 04:09:36;;;;;;;25.15;15.02;;;;;;;;;;4991148;28;20037;-68
2022/09/25 04:12:05;;;;;;;21.60;14.05;;;;;;;;;;4991011;28;20109;-69
2022/09/25 04:14:30;;;;;;;26.13;15.05;;;;;;;;;;4991786;28;20089;-67
2022/09/25 04:16:56;;;;;;;25.65;14.38;;;;;;;;;;4991502;28;20030;-68
2022/09/25 04:19:21;;;;;;;24.40;14.90;;;;;;;;;;4991336;28;20074;-68
2022/09/25 04:21:47;;;;;;;22.27;14.25;;;;;;;;;;4991384;28;20115;-68
2022/09/25 04:26:57;;;;;;;33.97;18.35;;;;;;;;;;4991364;28;20089;-67
2022/09/25 04:29:23;;;;;;;31.08;19.02;;;;;;;;;;4991457;28;20476;-67
2022/09/25 04:33:45;;;;;;;33.13;19.38;;;;;;;;;;4991511;28;20029;-68
2022/09/25 04:34:34;;;;;;;34.45;18.70;;;;;;;;;;4990874;28;20030;-68
2022/09/25 04:37:00;;;;;;;27.30;17.40;;;;;;;;;;4990816;28;20034;-68
2022/09/25 04:39:26;;;;;;;26.13;17.77;;;;;;;;;;4990511;28;20073;-67
2022/09/25 04:41:51;;;;;;;29.83;19.27;;;;;;;;;;4994177;28;20038;-67
2022/09/25 04:44:17;;;;;;;29.00;17.50;;;;;;;;;;4995242;28;20399;-68
2022/09/25 04:46:42;;;;;;;28.73;18.10;;;;;;;;;;4995523;28;20109;-67
2022/09/25 04:49:07;;;;;;;26.85;17.42;;;;;;;;;;4995281;28;20092;-68
2022/09/25 04:51:33;;;;;;;30.33;18.70;;;;;;;;;;4994758;28;20027;-68
2022/09/25 04:53:58;;;;;;;24.45;17.45;;;;;;;;;;4994460;28;20049;-68
2022/09/25 04:56:24;;;;;;;25.45;17.58;;;;;;;;;;4994482;28;20086;-68
2022/09/25 04:58:50;;;;;;;27.23;16.65;;;;;;;;;;4994599;28;20048;-68
2022/09/25 05:01:18;;;;;;;24.90;17.10;;;;;;;;;;4995322;28;20019;-68
2022/09/25 05:03:47;;;;;;;24.77;16.67;;;;;;;;;;4994899;28;20442;-67
2022/09/25 05:06:13;;;;;;;22.30;15.43;;;;;;;;;;4994927;28;20531;-67
2022/09/25 05:08:38;;;;;;;21.45;15.40;;;;;;;;;;4994642;28;20030;-67
2022/09/25 05:11:04;;;;;;;21.02;15.70;;;;;;;;;;4994839;28;20478;-67
2022/09/25 05:13:29;;;;;;;22.65;15.52;;;;;;;;;;4994776;28;20458;-67
2022/09/25 05:15:55;;;;;;;21.10;15.45;;;;;;;;;;4994972;28;20519;-67
2022/09/25 05:18:22;;;;;;;22.10;15.55;;;;;;;;;;4994040;28;20438;-67
2022/09/25 05:20:49;;;;;;;21.65;14.63;;;;;;;;;;4994011;28;20104;-67
2022/09/25 05:23:15;;;;;;;22.48;15.15;;;;;;;;;;4994144;28;20323;-68
2022/09/25 05:25:40;;;;;;;17.50;13.75;;;;;;;;;;4994437;28;20492;-67
2022/09/25 05:28:06;;;;;;;19.42;14.50;;;;;;;;;;4994584;28;20068;-67
2022/09/25 05:30:33;;;;;;;22.08;16.30;;;;;;;;;;4994491;28;20494;-67
2022/09/25 05:32:59;;;;;;;24.63;17.40;;;;;;;;;;4994439;28;20018;-67
2022/09/25 05:35:26;;;;;;;25.00;18.83;;;;;;;;;;4994483;28;20033;-67
2022/09/25 05:37:52;;;;;;;25.73;18.63;;;;;;;;;;4994077;28;20037;-67
2022/09/25 05:40:19;;;;;;;26.75;18.25;;;;;;;;;;4994334;28;20022;-67
2022/09/25 05:42:46;;;;;;;23.42;17.50;;;;;;;;;;4994363;28;20422;-67
2022/09/25 05:45:16;;;;;;;22.75;17.00;;;;;;;;;;4994274;28;20058;-68
2022/09/25 05:47:42;;;;;;;23.95;17.48;;;;;;;;;;4994168;28;20022;-68
2022/09/25 05:50:11;;;;;;;23.30;17.02;;;;;;;;;;4992183;28;20547;-69
2022/09/25 05:52:37;;;;;;;22.67;16.52;;;;;;;;;;4993214;28;20060;-68
2022/09/25 05:55:05;;;;;;;24.58;16.92;;;;;;;;;;4993582;28;20037;-67
2022/09/25 05:57:34;;;;;;;22.02;17.05;;;;;;;;;;4993711;28;20038;-68
2022/09/25 06:00:00;;;;;;;21.08;15.23;;;;;;;;;;4994044;28;20091;-67
2022/09/25 06:02:26;;;;;;;21.50;15.95;;;;;;;;;;4994031;28;20080;-67
2022/09/25 06:04:51;;;;;;;22.65;15.30;;;;;;;;;;4992690;28;20486;-67
2022/09/25 06:07:17;;;;;;;23.52;17.00;;;;;;;;;;4993670;28;20117;-67
2022/09/25 06:09:42;;;;;;;25.50;17.67;;;;;;;;;;4993902;28;20022;-67
2022/09/25 06:12:08;;;;;;;21.17;14.50;;;;;;;;;;4993685;28;20031;-67
2022/09/25 06:14:36;;;;;;;19.33;14.45;;;;;;;;;;4993629;28;20023;-67
2022/09/25 06:17:02;;;;;;;20.90;15.07;;;;;;;;;;4993581;28;20113;-67
2022/09/25 06:19:30;;;;;;;18.48;14.95;;;;;;;;;;4992861;28;20506;-68
2022/09/25 06:21:59;;;;;;;25.05;22.10;;;;;;;;;;4992656;28;20033;-67
2022/09/25 06:24:24;;;;;;;24.83;21.92;;;;;;;;;;4992829;28;20057;-67
2022/09/25 06:26:50;;;;;;;21.20;17.77;;;;;;;;;;4992936;28;20463;-68
2022/09/25 06:29:15;;;;;;;22.23;16.20;;;;;;;;;;4993306;28;20579;-67
2022/09/25 06:31:41;;;;;;;23.58;15.52;;;;;;;;;;4993398;28;20034;-67
2022/09/25 06:34:08;;;;;;;21.58;16.25;;;;;;;;;;4992862;28;20031;-68
2022/09/25 06:36:33;;;;;;;20.45;16.13;;;;;;;;;;4992977;28;20031;-67
2022/09/25 06:38:59;;;;;;;19.98;13.98;;;;;;;;;;4993206;28;20076;-68
2022/09/25 06:41:24;;;;;;;18.13;14.57;;;;;;;;;;4991962;28;20677;-68
2022/09/25 06:43:50;;;;;;;21.02;13.90;;;;;;;;;;4991922;28;20030;-68
2022/09/25 06:46:18;;;;;;;21.33;14.25;;;;;;;;;;4993448;28;20347;-68
2022/09/25 06:48:49;;;;;;;14.73;12.48;;;;;;;;;;4992729;28;20037;-68
2022/09/25 06:51:17;;;;;;;15.38;12.60;;;;;;;;;;4992158;28;20027;-68
2022/09/25 06:53:42;;;;;;;17.23;11.68;;;;;;;;;;4992170;28;20022;-68
2022/09/25 06:56:08;;;;;;;15.55;11.30;;;;;;;;;;4992452;28;20128;-68
2022/09/25 06:58:34;;;;;;;16.58;11.55;;;;;;;;;;4992559;28;20037;-69
2022/09/25 07:01:00;;;;;;;13.05;11.40;;;;;;;;;;4993090;28;20510;-68
2022/09/25 07:03:44;;;;;;;17.20;12.32;;;;;;;;;;4992300;28;20535;-68
2022/09/25 07:06:15;;;;;;;14.30;11.65;;;;;;;;;;4992852;28;20056;-68
2022/09/25 07:08:42;;;;;;;13.45;11.18;;;;;;;;;;4992565;28;20030;-68
2022/09/25 07:11:12;;;;;;;13.27;9.77;;;;;;;;;;4992700;28;20053;-68
2022/09/25 07:13:38;;;;;;;12.60;10.13;;;;;;;;;;4992588;28;20061;-68
2022/09/25 07:16:15;;;;;;;13.50;10.48;;;;;;;;;;4992501;28;20018;-68
2022/09/25 07:18:42;;;;;;;12.27;10.43;;;;;;;;;;4991933;28;20058;-67
2022/09/25 07:21:14;;;;;;;15.18;10.38;;;;;;;;;;4991851;28;20538;-68
2022/09/25 07:23:40;;;;;;;12.60;10.13;;;;;;;;;;4992034;28;20038;-68
2022/09/25 07:26:09;;;;;;;12.93;10.93;;;;;;;;;;4991758;28;20119;-68
2022/09/25 07:28:36;;;;;;;13.88;9.85;;;;;;;;;;4992100;28;20037;-69
2022/09/25 07:31:11;;;;;;;14.23;9.60;;;;;;;;;;4992402;28;20387;-67
2022/09/25 07:33:37;;;;;;;12.27;10.45;;;;;;;;;;4991902;28;20030;-68
2022/09/25 07:36:02;;;;;;;10.23;8.52;;;;;;;;;;4992135;28;20033;-71
2022/09/25 07:38:28;;;;;;;10.70;7.75;;;;;;;;;;4991991;28;20041;-69
2022/09/25 07:40:53;;;;;;;14.50;9.68;;;;;;;;;;4992106;28;20168;-67
2022/09/25 07:43:19;;;;;;;21.10;14.05;;;;;;;;;;4992061;28;20503;-69
2022/09/25 07:45:53;;;;;;;13.20;8.85;;;;;;;;;;4992453;28;20387;-68
2022/09/25 07:48:22;;;;;;;10.30;7.45;;;;;;;;;;4991156;28;20026;-68
2022/09/25 07:50:49;;;;;;;11.45;7.65;;;;;;;;;;4991259;28;20033;-68
2022/09/25 07:53:17;;;;;;;8.70;7.05;;;;;;;;;;4991282;28;20430;-67
2022/09/25 07:55:43;;;;;;;10.75;7.07;;;;;;;;;;4991279;28;20037;-69
2022/09/25 07:58:09;;;;;;;8.85;7.15;;;;;;;;;;4991797;28;20037;-67
2022/09/25 08:00:34;;;;;;;10.00;7.82;;;;;;;;;;4991788;28;20071;-67
2022/09/25 08:03:00;;;;;;;10.15;7.50;;;;;;;;;;4991475;28;20053;-68
2022/09/25 08:05:26;;;;;;;10.60;7.63;;;;;;;;;;4991793;28;20104;-69
2022/09/25 08:07:52;;;;;;;13.02;9.70;;;;;;;;;;4991336;28;20018;-68
2022/09/25 08:10:18;;;;;;;12.82;9.85;;;;;;;;;;4991597;28;20030;-68
2022/09/25 08:12:44;;;;;;;13.02;10.13;;;;;;;;;;4991553;28;20391;-68
2022/09/25 08:15:10;;;;;;;11.32;8.00;;;;;;;;;;4990800;28;20034;-67
2022/09/25 08:17:35;;;;;;;15.40;7.57;;;;;;;;;;4991012;28;20357;-67
2022/09/25 08:20:01;;;;;;;9.75;7.07;;;;;;;;;;5008691;28;20111;-68
2022/09/25 08:22:27;;;;;;;12.57;8.30;;;;;;;;;;5005952;28;20026;-66
2022/09/25 08:24:52;;;;;;;12.65;8.90;;;;;;;;;;5010705;28;20053;-67
2022/09/25 08:27:18;;;;;;;9.35;7.47;;;;;;;;;;5010909;28;20026;-68
2022/09/25 08:29:43;;;;;;;10.15;7.80;;;;;;;;;;5011231;28;20076;-66
2022/09/25 08:32:09;;;;;;;9.63;6.70;;;;;;;;;;5010282;28;20044;-67
2022/09/25 08:34:35;;;;;;;10.82;6.78;;;;;;;;;;5010125;28;20073;-66
2022/09/25 08:37:00;;;;;;;9.40;7.20;;;;;;;;;;5013302;28;20096;-66
2022/09/25 08:39:26;;;;;;;13.10;6.95;;;;;;;;;;5020751;28;20532;-69
2022/09/25 08:41:54;;;;;;;8.35;6.18;;;;;;;;;;5020677;28;20022;-69
2022/09/25 08:44:39;;;;;;;9.48;6.82;;;;;;;;;;5019031;28;20391;-67
2022/09/25 08:50:07;;;;;;;9.60;7.20;;;;;;;;;;5016392;28;20048;-67
2022/09/25 08:52:34;;;;;;;10.90;7.13;;;;;;;;;;5018579;28;20045;-69
2022/09/25 08:54:59;;;;;;;9.93;7.40;;;;;;;;;;5019806;28;20076;-67
2022/09/25 08:57:54;;;;;;;12.07;7.78;;;;;;;;;;5017870;28;20034;-69
2022/09/25 09:00:22;;;;;;;10.35;7.47;;;;;;;;;;5014621;28;20480;-67
2022/09/25 09:02:53;;;;;;;9.50;7.93;;;;;;;;;;5024346;28;20026;-67
2022/09/25 09:05:23;;;;;;;12.32;7.60;;;;;;;;;;5018921;28;20433;-67
2022/09/25 09:08:17;;;;;;;12.27;7.80;;;;;;;;;;5022403;28;20021;-67
2022/09/25 09:10:45;;;;;;;9.57;8.05;;;;;;;;;;5020319;28;20447;-69
2022/09/25 09:13:16;;;;;;;12.93;7.63;;;;;;;;;;5020502;28;20014;-67
2022/09/25 09:15:58;;;;;;;9.88;8.48;;;;;;;;;;5021074;28;20026;-67
2022/09/25 09:18:35;;;;;;;10.30;8.20;;;;;;;;;;5020193;28;20040;-70
2022/09/25 09:21:27;;;;;;;9.55;7.55;;;;;;;;;;5016963;28;20498;-67
2022/09/25 09:24:17;;;;;;;9.93;7.35;;;;;;;;;;5022104;28;20048;-68
2022/09/25 09:26:45;;;;;;;10.30;6.85;;;;;;;;;;5021032;28;20030;-67
2022/09/25 09:29:19;;;;;;;8.88;6.20;;;;;;;;;;5034792;28;20025;-67
2022/09/25 09:32:27;;;;;;;7.82;6.50;;;;;;;;;;5035271;28;20541;-69
2022/09/25 09:35:15;;;;;;;10.80;7.30;;;;;;;;;;5025964;28;20041;-68
2022/09/25 09:37:56;;;;;;;10.77;7.07;;;;;;;;;;5034791;28;20026;-68
2022/09/25 09:40:41;;;;;;;11.13;7.35;;;;;;;;;;5025289;28;20466;-68
2022/09/25 09:43:30;;;;;;;11.65;6.93;;;;;;;;;;5006021;28;20034;-69
2022/09/25 09:46:12;;;;;;;8.73;7.32;;;;;;;;;;4999890;28;20034;-68
2022/09/25 09:49:01;;;;;;;10.05;6.47;;;;;;;;;;5034787;28;20049;-68
2022/09/25 09:51:35;;;;;;;9.40;6.40;;;;;;;;;;5029164;28;20041;-68
2022/09/25 09:54:12;;;;;;;12.25;6.20;;;;;;;;;;5034886;28;20057;-68
2022/09/25 09:56:43;;;;;;;7.05;6.10;;;;;;;;;;5034630;28;20486;-68
2022/09/25 09:59:25;;;;;;;7.32;5.38;;;;;;;;;;5034294;28;20446;-68
2022/09/25 10:02:03;;;;;;;7.25;4.95;;;;;;;;;;5034639;28;20021;-69
2022/09/25 10:04:37;;;;;;;7.63;5.78;;;;;;;;;;5034750;28;20037;-68
2022/09/25 10:07:07;;;;;;;6.40;4.88;;;;;;;;;;5034426;28;20100;-68
2022/09/25 10:09:32;;;;;;;;;;;;;;;;;;5034877;28;20360;-68
2022/09/25 10:12:04;;;;;;;5.55;4.22;;;;;;;;;;5034425;28;19921;-68
2022/09/25 10:14:37;;;;;;;5.70;4.22;;;;;;;;;;5032851;28;20049;-68
2022/09/25 10:17:04;;;;;;;8.30;4.75;;;;;;;;;;5034267;28;20040;-68
2022/09/25 10:19:40;;;;;;;5.82;4.15;;;;;;;;;;5034192;28;20050;-68
2022/09/25 10:22:15;;;;;;;7.20;4.50;;;;;;;;;;5004067;28;20132;-68
2022/09/25 10:24:52;;;;;;;5.82;4.57;;;;;;;;;;4994863;28;20030;-68
2022/09/25 10:27:44;;;;;;;5.75;4.10;;;;;;;;;;4994425;28;20125;-68
2022/09/25 10:30:10;;;;;;;6.25;4.10;;;;;;;;;;4994632;28;20057;-68
2022/09/25 10:32:50;;;;;;;6.18;4.20;;;;;;;;;;4994675;28;20058;-68
2022/09/25 10:35:19;;;;;;;6.28;4.60;;;;;;;;;;4994634;28;20375;-68
2022/09/25 10:37:51;;;;;;;6.18;4.13;;;;;;;;;;4994037;28;20061;-68
2022/09/25 10:40:30;;;;;;;5.80;3.83;;;;;;;;;;4994250;28;20038;-68
2022/09/25 10:43:24;;;;;;;5.27;3.70;;;;;;;;;;4994219;28;20027;-68
2022/09/25 10:46:13;;;;;;;7.57;4.15;;;;;;;;;;4994165;28;20077;-69
2022/09/25 10:51:25;;;;;;;5.20;3.50;;;;;;;;;;5014150;28;20109;-69
2022/09/25 10:54:11;;;;;;;4.50;3.40;;;;;;;;;;5013822;28;20022;-68
2022/09/25 10:56:38;;;;;;;4.93;3.88;;;;;;;;;;5013624;28;20022;-69
2022/09/25 10:59:15;;;;;;;5.60;4.05;;;;;;;;;;5013694;28;20032;-69
2022/09/25 11:01:42;;;;;;;5.85;3.75;;;;;;;;;;5013757;28;20026;-70
2022/09/25 11:04:33;;;;;;;8.65;3.90;;;;;;;;;;5013681;28;20053;-69
2022/09/25 11:07:03;;;;;;;7.18;3.83;;;;;;;;;;5006014;28;20034;-69
2022/09/25 11:09:31;;;;;;;5.43;3.75;;;;;;;;;;5013733;28;20391;-69
2022/09/25 11:12:11;;;;;;;5.72;3.92;;;;;;;;;;5013417;28;20084;-69
2022/09/25 11:14:41;;;;;;;5.18;3.63;;;;;;;;;;5013494;28;20028;-69
2022/09/25 11:17:46;;;;;;;4.63;3.63;;;;;;;;;;5013307;28;20111;-68
2022/09/25 11:20:16;;;;;;;5.88;4.40;;;;;;;;;;5005812;28;20295;-70
2022/09/25 11:22:52;;;;;;;5.40;4.07;;;;;;;;;;4993662;28;20030;-68
2022/09/25 11:25:25;;;;;;;6.13;4.40;;;;;;;;;;4993278;28;20267;-69
2022/09/25 11:28:01;;;;;;;6.13;4.60;;;;;;;;;;4993532;28;20110;-70
2022/09/25 11:30:34;;;;;;;7.60;4.70;;;;;;;;;;4993627;28;20026;-68
2022/09/25 11:33:11;;;;;;;5.30;4.50;;;;;;;;;;4993677;28;20026;-69
2022/09/25 11:35:59;;;;;;;6.60;4.35;;;;;;;;;;4993508;28;20410;-68
2022/09/25 11:41:37;;;;;;;8.02;5.22;;;;;;;;;;4993330;28;20129;-69
2022/09/25 11:44:09;;;;;;;8.80;5.03;;;;;;;;;;4992686;28;20117;-69
2022/09/25 11:46:40;;;;;;;5.70;4.38;;;;;;;;;;4993438;28;20030;-69
2022/09/25 11:49:19;;;;;;;7.43;5.00;;;;;;;;;;4993128;28;20479;-68
2022/09/25 11:52:08;;;;;;;7.18;4.72;;;;;;;;;;4993256;28;20022;-69
2022/09/25 11:54:34;;;;;;;7.60;5.07;;;;;;;;;;4993146;28;20019;-69
2022/09/25 11:57:17;;;;;;;6.38;4.85;;;;;;;;;;4993064;28;20034;-69
2022/09/25 11:59:45;;;;;;;7.22;4.68;;;;;;;;;;4993170;28;20023;-69
2022/09/25 12:02:25;;;;;;;6.85;4.90;;;;;;;;;;4992973;28;20467;-69
2022/09/25 12:04:54;;;;;;;;;;;;;;;;;;4992113;28;20084;-69
2022/09/25 12:07:50;;;;;;;7.97;4.53;;;;;;;;;;4992681;28;19914;-69
2022/09/25 12:11:02;;;;;;;5.97;4.00;;;;;;;;;;4992768;28;20034;-69
2022/09/25 12:13:43;;;;;;;8.90;4.78;;;;;;;;;;4990740;28;20081;-68
2022/09/25 12:16:27;;;;;;;6.60;4.35;;;;;;;;;;4990711;28;20031;-69
2022/09/25 12:19:01;;;;;;;5.50;4.25;;;;;;;;;;4990468;28;20046;-68
2022/09/25 12:21:36;;;;;;;6.75;4.20;;;;;;;;;;4990636;28;20051;-68
2022/09/25 12:24:04;;;;;;;6.55;4.40;;;;;;;;;;4990488;28;20177;-69
2022/09/25 12:26:50;;;;;;;6.72;4.35;;;;;;;;;;4990681;28;20030;-68
2022/09/25 12:29:37;;;;;;;8.07;4.60;;;;;;;;;;4990613;28;20054;-69
2022/09/25 12:32:14;;;;;;;8.05;4.38;;;;;;;;;;4990682;28;20387;-69
2022/09/25 12:34:40;;;;;;;6.25;3.85;;;;;;;;;;4990521;28;20454;-69
2022/09/25 12:37:29;;;;;;;9.55;4.03;;;;;;;;;;4990439;28;20057;-68
2022/09/25 12:40:02;;;;;;;6.18;4.10;;;;;;;;;;4990316;28;20038;-69
2022/09/25 12:42:41;;;;;;;9.68;4.90;;;;;;;;;;4990392;28;20026;-69
2022/09/25 12:45:26;;;;;;;6.70;4.30;;;;;;;;;;4990556;28;20034;-68
2022/09/25 12:48:23;;;;;;;7.57;4.70;;;;;;;;;;4991964;28;20038;-69
2022/09/25 12:50:51;;;;;;;7.15;4.30;;;;;;;;;;4992711;28;20027;-68
2022/09/25 12:53:26;;;;;;;6.68;4.85;;;;;;;;;;4992398;28;20030;-68
2022/09/25 12:56:14;;;;;;;5.32;4.20;;;;;;;;;;4992668;28;20019;-71
2022/09/25 12:58:58;;;;;;;5.68;3.95;;;;;;;;;;4990170;28;20035;-67
2022/09/25 13:01:36;;;;;;;9.50;5.85;;;;;;;;;;4990602;28;20042;-68
2022/09/25 13:04:35;;;;;;;6.60;4.60;;;;;;;;;;4993976;28;20058;-70
2022/09/25 13:07:14;;;;;;;6.78;4.57;;;;;;;;;;4993752;28;20075;-68
2022/09/25 13:09:43;;;;;;;9.25;4.32;;;;;;;;;;4994104;28;20038;-68
2022/09/25 13:12:27;;;;;;;5.50;4.10;;;;;;;;;;4994134;28;20570;-68
2022/09/25 13:15:00;;;;;;;6.95;4.55;;;;;;;;;;4993955;28;20161;-68
2022/09/25 13:17:25;;;;;;;7.22;4.28;;;;;;;;;;4993939;28;20051;-69
2022/09/25 13:19:51;;;;;;;6.57;4.43;;;;;;;;;;4993804;28;20054;-68
2022/09/25 13:22:19;;;;;;;8.10;4.63;;;;;;;;;;4993448;28;20050;-68
2022/09/25 13:24:51;;;;;;;7.30;4.15;;;;;;;;;;4993794;28;20034;-68
2022/09/25 13:27:21;;;;;;;6.53;4.32;;;;;;;;;;4993485;28;20089;-68
2022/09/25 13:29:52;;;;;;;;;;;;;;;;;;4994035;28;20491;-68
2022/09/25 13:32:22;;;;;;;5.40;4.00;;;;;;;;;;4993680;28;19914;-69
2022/09/25 13:34:54;;;;;;;6.30;3.83;;;;;;;;;;4977579;28;20427;-69
2022/09/25 13:37:25;;;;;;;4.95;3.90;;;;;;;;;;4995430;28;20076;-68
2022/09/25 13:42:38;;;;;;;6.18;4.10;;;;;;;;;;4995589;28;20085;-68
2022/09/25 13:45:25;;;;;;;6.82;4.07;;;;;;;;;;4995620;28;20058;-68
2022/09/25 13:48:03;;;;;;;3.88;3.28;;;;;;;;;;4995537;28;20497;-69
2022/09/25 13:50:35;;;;;;;6.80;4.22;;;;;;;;;;4995374;28;20138;-68
2022/09/25 13:53:16;;;;;;;6.28;3.70;;;;;;;;;;4995388;28;20022;-69
2022/09/25 13:55:54;;;;;;;5.32;3.67;;;;;;;;;;4995168;28;20033;-68
2022/09/25 13:58:20;;;;;;;4.97;3.65;;;;;;;;;;4995282;28;20034;-68
2022/09/25 14:00:45;;;;;;;5.53;3.58;;;;;;;;;;4993942;28;20026;-68
2022/09/25 14:03:48;;;;;;;4.85;3.63;;;;;;;;;;4994909;28;20034;-69
2022/09/25 14:06:22;;;;;;;5.43;3.40;;;;;;;;;;4994879;28;20034;-68
2022/09/25 14:08:49;;;;;;;6.00;3.45;;;;;;;;;;4995272;28;20113;-69
2022/09/25 14:11:18;;;;;;;5.78;3.10;;;;;;;;;;4995070;28;20041;-69
2022/09/25 14:13:47;;;;;;;6.10;3.93;;;;;;;;;;4993681;28;20390;-68
2022/09/25 14:16:34;;;;;;;7.00;3.60;;;;;;;;;;4994988;28;20030;-68
2022/09/25 14:19:01;;;;;;;5.28;3.78;;;;;;;;;;5002201;28;20495;-67
2022/09/25 14:21:29;;;;;;;7.53;3.92;;;;;;;;;;5000055;28;20391;-67
2022/09/25 14:23:56;;;;;;;7.38;3.92;;;;;;;;;;4990742;28;20140;-68
2022/09/25 14:26:26;;;;;;;7.57;3.92;;;;;;;;;;4990889;28;20113;-68
2022/09/25 14:28:54;;;;;;;6.20;3.90;;;;;;;;;;4990841;28;20026;-68
2022/09/25 14:31:23;;;;;;;7.72;4.20;;;;;;;;;;4990366;28;20026;-68
2022/09/25 14:34:14;;;;;;;4.97;3.97;;;;;;;;;;4990790;28;20030;-69
2022/09/25 14:37:00;;;;;;;5.75;3.83;;;;;;;;;;4990676;28;20026;-68
2022/09/25 14:39:42;;;;;;;7.88;4.15;;;;;;;;;;4990536;28;20057;-68
2022/09/25 14:42:17;;;;;;;8.60;4.20;;;;;;;;;;4990473;28;20420;-69
2022/09/25 14:44:49;;;;;;;6.07;4.10;;;;;;;;;;4990642;28;20026;-67
2022/09/25 14:47:16;;;;;;;6.18;4.68;;;;;;;;;;4990399;28;20038;-67
2022/09/25 14:49:49;;;;;;;6.05;4.10;;;;;;;;;;4990390;28;20050;-67
2022/09/25 14:52:22;;;;;;;6.00;4.22;;;;;;;;;;4990455;28;20038;-67
2022/09/25 14:54:50;;;;;;;7.90;4.43;;;;;;;;;;4990121;28;20133;-68
2022/09/25 14:57:24;;;;;;;6.60;4.35;;;;;;;;;;4990179;28;20038;-67
2022/09/25 14:59:54;;;;;;;6.57;4.72;;;;;;;;;;4990200;28;20428;-67
2022/09/25 15:02:25;;;;;;;5.35;4.30;;;;;;;;;;5010929;28;20022;-67
2022/09/25 15:04:56;;;;;;;7.22;4.72;;;;;;;;;;5013347;28;20124;-67
2022/09/25 15:07:26;;;;;;;6.88;5.00;;;;;;;;;;5013640;28;20060;-68
2022/09/25 15:09:54;;;;;;;8.40;4.88;;;;;;;;;;5013529;28;20049;-67
2022/09/25 15:12:28;;;;;;;9.63;4.53;;;;;;;;;;5013330;28;20041;-69
2022/09/25 15:15:10;;;;;;;5.43;4.40;;;;;;;;;;5013512;28;20030;-67
2022/09/25 15:17:58;;;;;;;5.38;4.40;;;;;;;;;;5013131;28;20030;-67
2022/09/25 15:20:29;;;;;;;6.57;4.60;;;;;;;;;;5011978;28;20498;-67
2022/09/25 15:23:00;;;;;;;9.35;4.57;;;;;;;;;;4993500;28;20054;-67
2022/09/25 15:25:30;;;;;;;6.65;4.53;;;;;;;;;;4993308;28;20387;-67